Terminal Aerodrome Forecast
Issued by NWS St Louis, MO

Home | Current Version | Previous Version | Graphics & Text | Print | Product List | Glossary On
Versions: 1 2 3 4 5 6 7 8 9 10 11 12 13 14 15 16 17 18
796
FTUS43 KLSX 251501 AAB
TAFCOU
TAF AMD
KCOU 251501Z 2515/2612 28005KT P6SM SCT002 BKN015
     FM251600 01008KT P6SM SCT015 BKN050
     FM260100 VRB04KT P6SM SCT250=

USA.gov is the U.S. government's official web portal to all federal, state and local government web resources and services.